TimeHST,TemperatureF,Dew PointF,Humidity,Sea Level PressureIn,VisibilityMPH,Wind Direction,Wind SpeedMPH,Gust SpeedMPH,PrecipitationIn,Events,Conditions,WindDirDegrees,DateUTC
12:53 AM,77.0,69.1,76,30.09,10.0,ENE,17.3,-,N/A,,Scattered Clouds,70,2013-11-02 10:53:00
1:32 AM,77.0,69.8,78,30.08,10.0,East,18.4,23.0,N/A,,Mostly Cloudy,80,2013-11-02 11:32:00
1:43 AM,77.0,69.8,78,30.08,10.0,East,15.0,-,N/A,,Mostly Cloudy,80,2013-11-02 11:43:00
1:53 AM,77.0,69.1,76,30.07,10.0,East,18.4,-,N/A,,Mostly Cloudy,80,2013-11-02 11:53:00
2:53 AM,77.0,70.0,79,30.06,10.0,ENE,17.3,-,N/A,,Scattered Clouds,60,2013-11-02 12:53:00
3:53 AM,75.9,69.1,79,30.06,10.0,ENE,16.1,-,N/A,,Partly Cloudy,60,2013-11-02 13:53:00
4:53 AM,75.9,69.1,79,30.06,10.0,NE,16.1,-,N/A,,Scattered Clouds,50,2013-11-02 14:53:00
5:53 AM,75.9,69.1,79,30.06,10.0,NE,13.8,-,N/A,,Partly Cloudy,50,2013-11-02 15:53:00
6:53 AM,77.0,70.0,79,30.09,10.0,NE,12.7,-,N/A,,Scattered Clouds,50,2013-11-02 16:53:00
7:06 AM,77.0,69.8,78,30.09,10.0,NE,13.8,-,N/A,,Overcast,50,2013-11-02 17:06:00
7:20 AM,75.2,71.6,89,30.10,10.0,NE,16.1,-,0.03,Rain,Light Rain,50,2013-11-02 17:20:00
7:53 AM,78.1,70.0,76,30.10,10.0,NE,16.1,23.0,0.03,,Mostly Cloudy,50,2013-11-02 17:53:00
8:53 AM,79.0,69.1,72,30.12,10.0,ENE,15.0,-,N/A,,Partly Cloudy,60,2013-11-02 18:53:00
9:53 AM,80.1,70.0,71,30.13,10.0,ENE,11.5,-,N/A,,Partly Cloudy,60,2013-11-02 19:53:00
10:53 AM,80.1,71.1,74,30.12,10.0,ENE,15.0,-,0.00,,Mostly Cloudy,60,2013-11-02 20:53:00
11:53 AM,80.1,71.1,74,30.09,10.0,ENE,12.7,-,N/A,,Mostly Cloudy,60,2013-11-02 21:53:00
12:03 PM,80.6,69.8,70,30.10,-9999.0,ENE,16.1,-,N/A,,Scattered Clouds,60,2013-11-02 22:03:00
12:53 PM,82.0,70.0,67,30.08,10.0,ENE,15.0,-,N/A,,Partly Cloudy,60,2013-11-02 22:53:00
1:53 PM,82.0,69.1,65,30.05,10.0,NE,17.3,-,N/A,,Scattered Clouds,50,2013-11-02 23:53:00
2:53 PM,81.0,69.1,67,30.04,10.0,NE,17.3,-,N/A,,Partly Cloudy,50,2013-11-03 00:53:00
3:53 PM,80.1,69.1,69,30.03,10.0,NE,15.0,-,N/A,,Partly Cloudy,40,2013-11-03 01:53:00
4:53 PM,79.0,68.0,69,30.03,10.0,NE,18.4,-,N/A,,Scattered Clouds,40,2013-11-03 02:53:00
5:51 PM,77.0,69.8,78,30.05,10.0,ENE,17.3,-,0.01,,Mostly Cloudy,60,2013-11-03 03:51:00
5:53 PM,77.0,69.1,76,30.04,10.0,NE,18.4,-,0.01,,Mostly Cloudy,50,2013-11-03 03:53:00
6:53 PM,77.0,66.0,69,30.06,10.0,NE,19.6,-,N/A,,Mostly Cloudy,50,2013-11-03 04:53:00
7:53 PM,77.0,66.9,71,30.08,10.0,NE,16.1,-,N/A,,Clear,50,2013-11-03 05:53:00
8:53 PM,77.0,69.1,76,30.09,-9999.0,NE,15.0,-,N/A,,Mostly Cloudy,50,2013-11-03 06:53:00
9:53 PM,75.9,70.0,82,30.10,10.0,NE,21.9,-,N/A,,Scattered Clouds,50,2013-11-03 07:53:00
10:53 PM,75.9,69.1,79,30.10,-9999.0,NE,16.1,-,N/A,,Scattered Clouds,50,2013-11-03 08:53:00
11:53 PM,75.9,69.1,79,30.10,-9999.0,NE,12.7,-,N/A,,Partly Cloudy,50,2013-11-03 09:53:00